createdAt,value
2023-01-23T00:03:02.804Z,147.97351
2023-01-23T00:08:04.606Z,154.23891
2023-01-23T00:13:06.448Z,154.9589
2023-01-23T00:18:08.473Z,156.41379
2023-01-23T00:23:10.220Z,154.9589
2023-01-23T00:28:12.293Z,142.07074
2023-01-23T00:33:14.054Z,127.33333
2023-01-23T00:38:15.847Z,121.01149
2023-01-23T00:43:17.695Z,118.0113
2023-01-23T00:48:19.395Z,117.03371
2023-01-23T00:53:21.083Z,117.52113
2023-01-23T00:58:23.307Z,121.01149
2023-01-23T01:03:24.774Z,126.24852
2023-01-23T01:08:26.541Z,128.43114
2023-01-23T01:13:28.276Z,128.98498
2023-01-23T01:18:29.728Z,122.55072
2023-01-23T01:23:31.248Z,117.52113
2023-01-23T01:28:33.754Z,116.06704
2023-01-23T01:33:35.533Z,118.50425
2023-01-23T01:38:37.269Z,121.52161
2023-01-23T01:43:39.315Z,120.5043
2023-01-23T01:48:41.330Z,127.8806
2023-01-23T01:53:43.246Z,133.53846
2023-01-23T01:58:45.641Z,138.93671
2023-01-23T02:03:47.111Z,140.80511
2023-01-23T02:08:48.825Z,148.65116
2023-01-23T02:13:50.738Z,149.33333
2023-01-23T02:18:52.598Z,152.10811
2023-01-23T02:23:54.284Z,154.9589
2023-01-23T02:28:56.676Z,154.9589
2023-01-23T02:33:58.465Z,152.10811
2023-01-23T02:39:00.351Z,154.23891
2023-01-23T02:44:02.458Z,154.9589
2023-01-23T02:49:04.420Z,158.63415
2023-01-23T02:54:06.346Z,152.81356
2023-01-23T02:59:08.722Z,148.65116
2023-01-23T03:04:10.530Z,150.02007
2023-01-23T03:09:12.255Z,154.23891
2023-01-23T03:14:14.139Z,158.63415
2023-01-23T03:19:16.056Z,155.68385
2023-01-23T03:24:17.705Z,151.40741
2023-01-23T03:29:20.555Z,150.02007
2023-01-23T03:34:22.448Z,150.02007
2023-01-23T03:39:24.259Z,153.52381
2023-01-23T03:44:25.798Z,152.81356
2023-01-23T03:49:27.396Z,151.40741
2023-01-23T03:54:28.983Z,154.9589
2023-01-23T03:59:30.751Z,151.40741
2023-01-23T04:04:32.211Z,157.88889
2023-01-23T04:09:33.902Z,156.41379
2023-01-23T04:14:35.541Z,153.52381
2023-01-23T04:19:37.121Z,154.9589
2023-01-23T04:24:38.960Z,152.81356
2023-01-23T04:29:40.746Z,154.23891
2023-01-23T04:34:42.201Z,156.41379
2023-01-23T04:39:43.740Z,148.65116
2023-01-23T04:44:45.488Z,147.30033
2023-01-23T04:49:47.365Z,147.30033
2023-01-23T04:54:48.992Z,142.07074
2023-01-23T04:59:50.822Z,144
2023-01-23T05:04:52.679Z,142.07074
2023-01-23T05:09:54.152Z,140.17834
2023-01-23T05:14:55.766Z,133.53846
2023-01-23T05:19:57.523Z,137.10345
2023-01-23T05:24:58.956Z,140.80511
2023-01-23T05:30:01.065Z,143.35275
2023-01-23T05:35:02.672Z,147.30033
2023-01-23T05:40:04.251Z,144.65147
2023-01-23T05:45:05.962Z,144
2023-01-23T05:50:07.417Z,136.5
2023-01-23T05:55:08.958Z,127.8806
2023-01-23T06:00:10.620Z,124.64516
2023-01-23T06:05:12.151Z,132.3792
2023-01-23T06:10:13.887Z,154.23891
2023-01-23T06:15:15.608Z,163.21708
2023-01-23T06:20:17.667Z,126.78932
2023-01-23T06:25:19.654Z,165.58273
2023-01-23T06:30:22.825Z,178.22053
2023-01-23T06:35:24.851Z,163.21708
2023-01-23T06:40:26.466Z,169.64103
2023-01-23T06:45:27.955Z,180.01533
2023-01-23T06:50:29.558Z,181.83784
2023-01-23T06:55:30.990Z,194.4065
2023-01-23T07:00:32.801Z,183.68872
2023-01-23T07:05:34.294Z,207.24786
2023-01-23T07:10:35.763Z,198.54545
2023-01-23T07:15:39.078Z,192.3871
2023-01-23T07:20:42.105Z,220.23318
2023-01-23T07:25:43.875Z,215.36564
2023-01-23T07:30:46.190Z,196.45902
2023-01-23T07:35:47.934Z,205.01695
2023-01-23T07:40:49.914Z,220.23318
2023-01-23T07:45:51.935Z,202.82353
2023-01-23T07:50:54.135Z,186.51969
2023-01-23T07:55:56.118Z,185.56863
2023-01-23T08:00:58.233Z,195.42857
2023-01-23T08:06:00.338Z,184.625
2023-01-23T08:11:02.441Z,197.49794
2023-01-23T08:16:04.762Z,193.39271
2023-01-23T08:21:06.571Z,177.33333
2023-01-23T08:26:08.560Z,160.14035
2023-01-23T08:31:10.695Z,167.18841
2023-01-23T08:36:12.577Z,141.4359
2023-01-23T08:41:14.608Z,154.23891
2023-01-23T08:46:16.610Z,145.96721
2023-01-23T08:51:18.418Z,150.71141
2023-01-23T08:56:20.273Z,152.81356
2023-01-23T09:01:22.615Z,153.52381
2023-01-23T09:06:24.473Z,152.81356
2023-01-23T09:11:26.394Z,153.52381
2023-01-23T09:16:28.218Z,168.81752
2023-01-23T09:21:30.009Z,170.47059
2023-01-23T09:26:31.461Z,184.625
2023-01-23T09:31:33.261Z,201.74059
2023-01-23T09:36:42.989Z,243.02913
2023-01-23T09:41:45.124Z,273.41176
2023-01-23T09:46:46.909Z,264.83333
2023-01-23T09:51:49.022Z,294
2023-01-23T09:56:50.723Z,351.94702
2023-01-23T10:01:52.742Z,324.24691
2023-01-23T10:06:54.448Z,321.91411
2023-01-23T10:11:56.274Z,338.87179
2023-01-23T10:16:58.108Z,384
2023-01-23T10:21:59.870Z,368.82759
2023-01-23T10:27:01.708Z,417.84615
2023-01-23T10:32:03.747Z,368.82759
2023-01-23T10:37:05.474Z,393.63504
2023-01-23T10:42:07.507Z,324.24691
2023-01-23T10:47:09.346Z,333.87342
2023-01-23T10:52:11.162Z,329
2023-01-23T10:57:12.972Z,341.41935
2023-01-23T11:02:15.319Z,414.22901
2023-01-23T11:07:17.282Z,475.03448
2023-01-23T11:12:19.160Z,644
2023-01-23T11:17:21.066Z,542.05825
2023-01-23T11:22:23.112Z,536.30769
2023-01-23T11:27:24.945Z,579.05155
2023-01-23T11:32:27.073Z,811.60563
2023-01-23T11:37:28.705Z,988.0678
2023-01-23T11:42:30.450Z,1106.26415
2023-01-23T11:47:32.106Z,1176
2023-01-23T11:52:33.707Z,1151.84314
2023-01-23T11:57:35.429Z,1106.26415
2023-01-23T12:02:38.466Z,1344
2023-01-23T12:07:40.768Z,1201.14286
2023-01-23T12:12:42.448Z,1608.86486
2023-01-23T12:17:44.192Z,1565.05263
2023-01-23T12:22:45.645Z,1704
2023-01-23T12:27:47.152Z,2225.48148
2023-01-23T12:32:48.830Z,3024
2023-01-23T12:37:50.309Z,2313.23077
2023-01-23T12:42:52.147Z,2744
2023-01-23T12:47:54.012Z,2408
2023-01-23T12:52:55.919Z,2510.66667
2023-01-23T12:58:00.157Z,2622.26087
2023-01-23T13:03:11.608Z,1997.33333
2023-01-23T13:08:14.270Z,2144
2023-01-23T13:13:16.152Z,1755.76471
2023-01-23T13:18:18.108Z,1523.48718
2023-01-23T13:23:19.957Z,1344
2023-01-23T13:28:22.232Z,2144
2023-01-23T13:33:24.484Z,1869
2023-01-23T13:38:26.471Z,2510.66667
2023-01-23T13:43:28.082Z,2313.23077
2023-01-23T14:31:37.632Z,1608.86486
2023-01-23T14:36:39.596Z,970.66667
2023-01-23T14:41:43.758Z,744
2023-01-23T14:46:46.786Z,877.33333
2023-01-23T14:51:48.756Z,1376.55814
2023-01-23T14:56:50.544Z,1176
2023-01-23T15:01:52.636Z,1006.06897
2023-01-23T15:06:54.636Z,1176
2023-01-23T15:11:57.544Z,953.83607
2023-01-23T15:16:59.641Z,953.83607
2023-01-23T15:22:01.482Z,921.77778
2023-01-23T15:27:03.365Z,1006.06897
2023-01-23T15:32:05.328Z,1484
2023-01-23T15:37:07.243Z,1655.11111
2023-01-23T15:42:09.227Z,1254.6383
2023-01-23T15:47:11.035Z,1151.84314
2023-01-23T15:52:13.114Z,1084.74074
2023-01-23T15:57:15.045Z,877.33333
2023-01-23T16:02:29.598Z,652.04598
2023-01-23T16:07:32.516Z,695.21951
2023-01-23T16:12:34.333Z,668.70588
2023-01-23T16:17:36.090Z,585.66667
2023-01-23T16:22:37.953Z,579.05155
2023-01-23T16:27:39.780Z,489.13274
2023-01-23T16:32:41.708Z,403.70149
2023-01-23T16:37:43.931Z,390.37681
2023-01-23T16:42:46.051Z,400.2963
2023-01-23T16:47:47.851Z,387.16547
2023-01-23T16:52:49.755Z,371.77778
2023-01-23T16:57:51.525Z,363.04762
2023-01-23T17:02:53.449Z,338.87179
2023-01-23T17:07:55.041Z,280.61202
2023-01-23T17:12:56.773Z,298.02299
2023-01-23T17:17:58.481Z,284.33149
2023-01-23T17:23:00.287Z,256.69036
2023-01-23T17:28:12.208Z,243.02913
2023-01-23T17:33:14.735Z,237.33333
2023-01-23T17:38:16.450Z,226.56881
2023-01-23T17:43:18.095Z,216.56637
2023-01-23T17:48:19.832Z,216.56637
2023-01-23T17:53:21.705Z,201.74059
2023-01-23T17:58:23.297Z,203.91561
2023-01-23T18:03:25.566Z,198.54545
2023-01-23T18:08:27.397Z,191.38956
2023-01-23T18:13:29.298Z,184.625
2023-01-23T18:18:30.816Z,175.57895
2023-01-23T18:23:32.333Z,169.64103
2023-01-23T18:28:33.920Z,174.71161
2023-01-23T18:33:35.554Z,177.33333
2023-01-23T18:38:37.067Z,187.47826
2023-01-23T18:43:38.786Z,181.83784
2023-01-23T18:48:40.630Z,183.68872
2023-01-23T18:53:42.380Z,181.83784
2023-01-23T18:58:44.096Z,177.33333
2023-01-23T19:03:45.779Z,180.01533
2023-01-23T19:08:47.345Z,179.1145
2023-01-23T19:13:49.004Z,171.30627
2023-01-23T19:18:50.633Z,164
2023-01-23T19:23:52.315Z,164.78853
2023-01-23T19:28:53.842Z,160.90141
2023-01-23T19:33:56.006Z,160.14035
2023-01-23T19:38:57.479Z,153.52381
2023-01-23T19:43:59.463Z,152.81356
2023-01-23T19:49:02.963Z,150.71141
2023-01-23T19:54:05.432Z,149.33333
2023-01-23T19:59:07.262Z,147.30033
2023-01-23T20:04:09.341Z,147.30033
2023-01-23T20:09:11.308Z,140.80511
2023-01-23T20:14:13.337Z,135.90031
2023-01-23T20:19:15.336Z,139.55556
2023-01-23T20:24:17.306Z,138.93671
2023-01-23T20:29:19.289Z,137.71069
2023-01-23T20:34:21.447Z,139.55556
2023-01-23T20:39:23.365Z,135.30435
2023-01-23T20:44:26.144Z,135.90031
2023-01-23T20:49:28.132Z,136.5
2023-01-23T20:54:30.084Z,135.90031
2023-01-23T20:59:31.758Z,123.06977
2023-01-23T21:04:33.514Z,126.24852
2023-01-23T21:09:35.201Z,121.01149
2023-01-23T21:14:37.075Z,119
2023-01-23T21:19:38.566Z,124.64516
2023-01-23T21:24:40.257Z,130.10272
2023-01-23T21:29:41.716Z,131.23404
2023-01-23T21:34:43.370Z,138.32177
2023-01-23T21:39:44.861Z,144.65147
2023-01-23T21:44:46.512Z,146.63158
2023-01-23T21:49:48.428Z,146.63158
2023-01-23T21:54:50.036Z,147.97351
2023-01-23T21:59:52.082Z,145.96721
2023-01-23T22:04:54.210Z,144
2023-01-23T22:09:56.043Z,140.17834
2023-01-23T22:14:58.440Z,140.80511
2023-01-23T22:20:00.373Z,141.4359
2023-01-23T22:25:02.442Z,140.17834
2023-01-23T22:30:04.401Z,138.32177
2023-01-23T22:35:06.289Z,140.17834
2023-01-23T22:40:08.088Z,139.55556
2023-01-23T22:45:10.526Z,138.93671
2023-01-23T22:50:12.354Z,141.4359
2023-01-23T22:55:14.276Z,142.07074
2023-01-23T23:00:16.097Z,140.80511
2023-01-23T23:05:18.319Z,138.32177
2023-01-23T23:10:20.152Z,138.32177
2023-01-23T23:15:22.503Z,136.5
2023-01-23T23:20:24.654Z,138.93671
2023-01-23T23:25:26.596Z,141.4359
2023-01-23T23:30:28.388Z,140.80511
2023-01-23T23:35:30.345Z,140.17834
2023-01-23T23:40:31.842Z,139.55556
2023-01-23T23:45:33.687Z,140.17834
2023-01-23T23:50:35.803Z,141.4359
2023-01-23T23:55:37.234Z,137.10345
